Terminal Aerodrome Forecast
Issued by NWS

Home | Current Version | Previous Version | Text Only | Print | Product List | Glossary On
Versions: 1 2 3 4 5 6 7 8 9 10 11 12 13 14 15
306
FTUS43 KAPX 202047 AAA
TAFMBL
TAF AMD
KMBL 202047Z 2021/2118 15006G16KT P6SM SCT250
     FM210200 16004KT P6SM SCT070 WS006/17025KT
     FM210700 VRB03KT P6SM VCTS BKN045CB
     FM210900 VRB03KT 4SM -SHRA VCTS BKN035CB
     FM211200 VRB03KT 3SM BR OVC050
     FM211400 VRB03KT P6SM SCT060=

USA.gov is the U.S. government's official web portal to all federal, state and local government web resources and services.